sensor_id;sensor_type;location;lat;lon;timestamp;temperature;humidity
73777;DHT22;62088;50.240;2.696;2023-04-10T00:00:35;11.20;70.30
73777;DHT22;62088;50.240;2.696;2023-04-10T00:03:04;11.20;70.50
73777;DHT22;62088;50.240;2.696;2023-04-10T00:05:31;11.10;70.50
73777;DHT22;62088;50.240;2.696;2023-04-10T00:07:59;11.10;70.60
73777;DHT22;62088;50.240;2.696;2023-04-10T00:10:26;11.10;70.70
73777;DHT22;62088;50.240;2.696;2023-04-10T00:12:56;11.10;70.70
73777;DHT22;62088;50.240;2.696;2023-04-10T00:15:24;11.10;70.80
73777;DHT22;62088;50.240;2.696;2023-04-10T00:17:51;11.10;70.90
73777;DHT22;62088;50.240;2.696;2023-04-10T00:20:21;11.10;70.90
73777;DHT22;62088;50.240;2.696;2023-04-10T00:22:49;11.00;70.90
73777;DHT22;62088;50.240;2.696;2023-04-10T00:25:16;11.00;71.00
73777;DHT22;62088;50.240;2.696;2023-04-10T00:27:43;11.00;71.00
73777;DHT22;62088;50.240;2.696;2023-04-10T00:30:10;11.00;71.00
73777;DHT22;62088;50.240;2.696;2023-04-10T00:32:37;10.90;71.00
73777;DHT22;62088;50.240;2.696;2023-04-10T00:35:05;10.90;71.10
73777;DHT22;62088;50.240;2.696;2023-04-10T00:37:32;10.90;71.10
73777;DHT22;62088;50.240;2.696;2023-04-10T00:39:59;10.90;71.10
73777;DHT22;62088;50.240;2.696;2023-04-10T00:42:26;10.90;71.10
73777;DHT22;62088;50.240;2.696;2023-04-10T00:44:53;10.90;71.20
73777;DHT22;62088;50.240;2.696;2023-04-10T00:47:21;10.90;71.20
73777;DHT22;62088;50.240;2.696;2023-04-10T00:49:48;10.90;71.20
73777;DHT22;62088;50.240;2.696;2023-04-10T00:52:16;10.90;71.30
73777;DHT22;62088;50.240;2.696;2023-04-10T00:54:43;10.90;71.30
73777;DHT22;62088;50.240;2.696;2023-04-10T00:57:10;10.80;71.40
73777;DHT22;62088;50.240;2.696;2023-04-10T00:59:38;10.80;71.50
73777;DHT22;62088;50.240;2.696;2023-04-10T01:02:05;10.80;71.50
73777;DHT22;62088;50.240;2.696;2023-04-10T01:04:33;10.80;71.50
73777;DHT22;62088;50.240;2.696;2023-04-10T01:07:20;10.80;71.50
73777;DHT22;62088;50.240;2.696;2023-04-10T01:15:20;10.70;71.80
73777;DHT22;62088;50.240;2.696;2023-04-10T01:18:01;10.70;71.90
73777;DHT22;62088;50.240;2.696;2023-04-10T01:20:32;10.70;72.00
73777;DHT22;62088;50.240;2.696;2023-04-10T01:30:56;10.70;72.00
73777;DHT22;62088;50.240;2.696;2023-04-10T01:33:39;10.60;71.90
73777;DHT22;62088;50.240;2.696;2023-04-10T01:36:12;10.60;72.00
73777;DHT22;62088;50.240;2.696;2023-04-10T01:38:44;10.60;72.10
73777;DHT22;62088;50.240;2.696;2023-04-10T01:41:11;10.60;72.20
73777;DHT22;62088;50.240;2.696;2023-04-10T01:43:40;10.50;72.20
73777;DHT22;62088;50.240;2.696;2023-04-10T01:46:08;10.50;72.40
73777;DHT22;62088;50.240;2.696;2023-04-10T01:48:37;10.50;72.50
73777;DHT22;62088;50.240;2.696;2023-04-10T01:51:06;10.50;72.50
73777;DHT22;62088;50.240;2.696;2023-04-10T01:53:34;10.50;72.50
73777;DHT22;62088;50.240;2.696;2023-04-10T01:56:02;10.50;72.50
73777;DHT22;62088;50.240;2.696;2023-04-10T01:58:34;10.50;72.50
73777;DHT22;62088;50.240;2.696;2023-04-10T02:01:03;10.50;72.50
73777;DHT22;62088;50.240;2.696;2023-04-10T02:03:31;10.50;72.60
73777;DHT22;62088;50.240;2.696;2023-04-10T02:06:10;10.50;72.40
73777;DHT22;62088;50.240;2.696;2023-04-10T02:08:42;10.50;72.40
73777;DHT22;62088;50.240;2.696;2023-04-10T02:11:36;10.50;72.40
73777;DHT22;62088;50.240;2.696;2023-04-10T02:14:08;10.50;72.40
73777;DHT22;62088;50.240;2.696;2023-04-10T02:16:37;10.40;72.50
73777;DHT22;62088;50.240;2.696;2023-04-10T02:19:05;10.40;72.50
73777;DHT22;62088;50.240;2.696;2023-04-10T02:21:32;10.40;72.60
73777;DHT22;62088;50.240;2.696;2023-04-10T02:24:00;10.40;72.80
73777;DHT22;62088;50.240;2.696;2023-04-10T02:26:27;10.40;72.80
73777;DHT22;62088;50.240;2.696;2023-04-10T02:28:54;10.40;72.80
73777;DHT22;62088;50.240;2.696;2023-04-10T02:31:23;10.40;72.80
73777;DHT22;62088;50.240;2.696;2023-04-10T02:33:50;10.40;72.90
73777;DHT22;62088;50.240;2.696;2023-04-10T02:36:18;10.30;72.90
73777;DHT22;62088;50.240;2.696;2023-04-10T02:38:45;10.30;72.90
73777;DHT22;62088;50.240;2.696;2023-04-10T02:41:12;10.40;72.90
73777;DHT22;62088;50.240;2.696;2023-04-10T02:43:39;10.40;72.90
73777;DHT22;62088;50.240;2.696;2023-04-10T02:46:07;10.40;72.90
73777;DHT22;62088;50.240;2.696;2023-04-10T02:48:38;10.30;72.80
73777;DHT22;62088;50.240;2.696;2023-04-10T02:51:05;10.40;72.70
73777;DHT22;62088;50.240;2.696;2023-04-10T02:53:32;10.40;72.70
73777;DHT22;62088;50.240;2.696;2023-04-10T02:56:00;10.40;72.70
73777;DHT22;62088;50.240;2.696;2023-04-10T02:58:28;10.30;72.70
73777;DHT22;62088;50.240;2.696;2023-04-10T03:00:57;10.30;72.70
73777;DHT22;62088;50.240;2.696;2023-04-10T03:03:36;10.30;72.70
73777;DHT22;62088;50.240;2.696;2023-04-10T03:06:04;10.30;72.80
73777;DHT22;62088;50.240;2.696;2023-04-10T03:08:33;10.30;72.80
73777;DHT22;62088;50.240;2.696;2023-04-10T03:11:00;10.30;72.90
73777;DHT22;62088;50.240;2.696;2023-04-10T03:13:28;10.20;72.90
73777;DHT22;62088;50.240;2.696;2023-04-10T03:15:55;10.20;72.80
73777;DHT22;62088;50.240;2.696;2023-04-10T03:18:22;10.20;72.90
73777;DHT22;62088;50.240;2.696;2023-04-10T03:20:51;10.20;72.80
73777;DHT22;62088;50.240;2.696;2023-04-10T03:23:19;10.20;72.90
73777;DHT22;62088;50.240;2.696;2023-04-10T03:25:50;10.20;72.90
73777;DHT22;62088;50.240;2.696;2023-04-10T03:28:23;10.20;72.90
73777;DHT22;62088;50.240;2.696;2023-04-10T03:30:50;10.10;72.90
73777;DHT22;62088;50.240;2.696;2023-04-10T03:33:17;10.10;72.90
73777;DHT22;62088;50.240;2.696;2023-04-10T03:35:47;10.10;72.90
73777;DHT22;62088;50.240;2.696;2023-04-10T03:38:14;10.10;73.00
73777;DHT22;62088;50.240;2.696;2023-04-10T03:40:41;10.10;73.00
73777;DHT22;62088;50.240;2.696;2023-04-10T03:43:09;10.10;73.10
73777;DHT22;62088;50.240;2.696;2023-04-10T03:45:37;10.00;73.10
73777;DHT22;62088;50.240;2.696;2023-04-10T03:48:04;10.00;73.10
73777;DHT22;62088;50.240;2.696;2023-04-10T03:50:39;10.00;73.10
73777;DHT22;62088;50.240;2.696;2023-04-10T03:53:06;10.00;73.10
73777;DHT22;62088;50.240;2.696;2023-04-10T03:55:34;10.00;73.10
73777;DHT22;62088;50.240;2.696;2023-04-10T03:58:02;10.00;73.00
73777;DHT22;62088;50.240;2.696;2023-04-10T04:00:30;9.90;73.00
73777;DHT22;62088;50.240;2.696;2023-04-10T04:03:06;9.90;72.90
73777;DHT22;62088;50.240;2.696;2023-04-10T04:05:52;9.90;72.90
73777;DHT22;62088;50.240;2.696;2023-04-10T04:08:30;9.90;72.80
73777;DHT22;62088;50.240;2.696;2023-04-10T04:11:05;9.90;72.70
73777;DHT22;62088;50.240;2.696;2023-04-10T04:13:37;9.90;72.60
73777;DHT22;62088;50.240;2.696;2023-04-10T04:16:08;9.90;72.60
73777;DHT22;62088;50.240;2.696;2023-04-10T04:18:51;9.90;72.50
73777;DHT22;62088;50.240;2.696;2023-04-10T04:21:28;9.90;72.50
73777;DHT22;62088;50.240;2.696;2023-04-10T04:24:01;9.90;72.50
73777;DHT22;62088;50.240;2.696;2023-04-10T04:26:49;9.90;72.50
73777;DHT22;62088;50.240;2.696;2023-04-10T04:29:34;10.00;72.40
73777;DHT22;62088;50.240;2.696;2023-04-10T04:32:09;9.90;72.40
73777;DHT22;62088;50.240;2.696;2023-04-10T04:34:59;10.00;72.40
73777;DHT22;62088;50.240;2.696;2023-04-10T04:37:46;10.00;72.50
73777;DHT22;62088;50.240;2.696;2023-04-10T04:40:36;9.90;72.60
73777;DHT22;62088;50.240;2.696;2023-04-10T04:43:19;9.90;72.60
73777;DHT22;62088;50.240;2.696;2023-04-10T04:45:59;9.90;72.70
73777;DHT22;62088;50.240;2.696;2023-04-10T04:48:59;9.90;72.80
73777;DHT22;62088;50.240;2.696;2023-04-10T04:51:42;9.90;72.90
73777;DHT22;62088;50.240;2.696;2023-04-10T04:54:35;9.90;72.90
73777;DHT22;62088;50.240;2.696;2023-04-10T04:57:20;9.90;73.00
73777;DHT22;62088;50.240;2.696;2023-04-10T05:00:03;9.90;72.80
73777;DHT22;62088;50.240;2.696;2023-04-10T05:02:45;9.90;72.80
73777;DHT22;62088;50.240;2.696;2023-04-10T05:05:31;9.90;72.90
73777;DHT22;62088;50.240;2.696;2023-04-10T05:08:17;9.90;72.80
73777;DHT22;62088;50.240;2.696;2023-04-10T05:10:56;9.90;72.80
73777;DHT22;62088;50.240;2.696;2023-04-10T05:13:53;9.90;72.80
73777;DHT22;62088;50.240;2.696;2023-04-10T05:16:30;9.90;72.80
73777;DHT22;62088;50.240;2.696;2023-04-10T05:19:16;9.90;72.80
73777;DHT22;62088;50.240;2.696;2023-04-10T05:21:53;9.90;72.70
73777;DHT22;62088;50.240;2.696;2023-04-10T05:24:41;9.90;72.70
73777;DHT22;62088;50.240;2.696;2023-04-10T05:27:13;9.90;72.60
73777;DHT22;62088;50.240;2.696;2023-04-10T05:30:19;9.90;72.70
73777;DHT22;62088;50.240;2.696;2023-04-10T05:33:07;9.90;72.70
73777;DHT22;62088;50.240;2.696;2023-04-10T05:35:55;9.90;72.80
73777;DHT22;62088;50.240;2.696;2023-04-10T05:38:29;9.90;72.90
73777;DHT22;62088;50.240;2.696;2023-04-10T05:41:14;9.90;72.90
73777;DHT22;62088;50.240;2.696;2023-04-10T05:44:05;9.90;72.90
73777;DHT22;62088;50.240;2.696;2023-04-10T05:46:51;9.90;73.00
73777;DHT22;62088;50.240;2.696;2023-04-10T05:49:41;9.90;73.10
73777;DHT22;62088;50.240;2.696;2023-04-10T05:52:25;9.90;73.10
73777;DHT22;62088;50.240;2.696;2023-04-10T05:55:21;9.90;73.10
73777;DHT22;62088;50.240;2.696;2023-04-10T05:58:24;9.90;73.00
73777;DHT22;62088;50.240;2.696;2023-04-10T06:01:14;9.90;73.10
73777;DHT22;62088;50.240;2.696;2023-04-10T06:03:50;9.90;73.10
73777;DHT22;62088;50.240;2.696;2023-04-10T06:06:19;9.90;73.20
73777;DHT22;62088;50.240;2.696;2023-04-10T06:08:47;9.90;73.20
73777;DHT22;62088;50.240;2.696;2023-04-10T06:11:14;9.90;73.10
73777;DHT22;62088;50.240;2.696;2023-04-10T06:13:44;9.90;73.20
73777;DHT22;62088;50.240;2.696;2023-04-10T06:16:11;10.00;73.20
73777;DHT22;62088;50.240;2.696;2023-04-10T06:18:42;9.90;73.20
73777;DHT22;62088;50.240;2.696;2023-04-10T06:21:09;10.00;73.20
73777;DHT22;62088;50.240;2.696;2023-04-10T06:23:39;10.00;73.30
73777;DHT22;62088;50.240;2.696;2023-04-10T06:26:06;10.10;73.30
73777;DHT22;62088;50.240;2.696;2023-04-10T06:36:45;10.10;73.30
73777;DHT22;62088;50.240;2.696;2023-04-10T06:39:13;10.10;73.30
73777;DHT22;62088;50.240;2.696;2023-04-10T06:41:39;10.20;73.20
73777;DHT22;62088;50.240;2.696;2023-04-10T06:44:22;10.20;73.10
73777;DHT22;62088;50.240;2.696;2023-04-10T06:46:49;10.20;73.00
73777;DHT22;62088;50.240;2.696;2023-04-10T06:49:16;10.20;73.00
73777;DHT22;62088;50.240;2.696;2023-04-10T06:51:44;10.20;72.90
73777;DHT22;62088;50.240;2.696;2023-04-10T06:54:11;10.30;72.80
73777;DHT22;62088;50.240;2.696;2023-04-10T06:56:38;10.30;72.50
73777;DHT22;62088;50.240;2.696;2023-04-10T06:59:06;10.30;72.50
73777;DHT22;62088;50.240;2.696;2023-04-10T07:01:33;10.40;72.40
73777;DHT22;62088;50.240;2.696;2023-04-10T07:04:00;10.40;72.20
73777;DHT22;62088;50.240;2.696;2023-04-10T07:06:27;10.40;72.10
73777;DHT22;62088;50.240;2.696;2023-04-10T07:08:54;10.40;71.90
73777;DHT22;62088;50.240;2.696;2023-04-10T07:11:22;10.40;71.90
73777;DHT22;62088;50.240;2.696;2023-04-10T07:13:48;10.40;71.80
73777;DHT22;62088;50.240;2.696;2023-04-10T07:16:19;10.50;71.80
73777;DHT22;62088;50.240;2.696;2023-04-10T07:18:46;10.50;71.70
73777;DHT22;62088;50.240;2.696;2023-04-10T07:21:13;10.60;71.30
73777;DHT22;62088;50.240;2.696;2023-04-10T07:23:40;10.60;71.60
73777;DHT22;62088;50.240;2.696;2023-04-10T07:26:08;10.70;71.40
73777;DHT22;62088;50.240;2.696;2023-04-10T07:28:35;10.70;71.50
73777;DHT22;62088;50.240;2.696;2023-04-10T07:31:02;10.80;71.70
73777;DHT22;62088;50.240;2.696;2023-04-10T07:33:29;10.80;71.50
73777;DHT22;62088;50.240;2.696;2023-04-10T07:35:56;10.80;71.20
73777;DHT22;62088;50.240;2.696;2023-04-10T07:38:24;10.80;71.40
73777;DHT22;62088;50.240;2.696;2023-04-10T07:40:57;10.90;71.50
73777;DHT22;62088;50.240;2.696;2023-04-10T07:43:25;10.90;71.40
73777;DHT22;62088;50.240;2.696;2023-04-10T07:45:52;10.90;71.40
73777;DHT22;62088;50.240;2.696;2023-04-10T07:48:19;10.90;71.20
73777;DHT22;62088;50.240;2.696;2023-04-10T07:50:46;10.90;71.40
73777;DHT22;62088;50.240;2.696;2023-04-10T07:53:13;11.00;71.50
73777;DHT22;62088;50.240;2.696;2023-04-10T07:55:44;11.00;71.50
73777;DHT22;62088;50.240;2.696;2023-04-10T07:58:11;11.10;71.60
73777;DHT22;62088;50.240;2.696;2023-04-10T08:00:38;11.10;71.50
73777;DHT22;62088;50.240;2.696;2023-04-10T08:03:06;11.20;71.60
73777;DHT22;62088;50.240;2.696;2023-04-10T08:05:33;11.20;71.60
73777;DHT22;62088;50.240;2.696;2023-04-10T08:08:00;11.30;71.50
73777;DHT22;62088;50.240;2.696;2023-04-10T08:10:27;11.40;71.60
73777;DHT22;62088;50.240;2.696;2023-04-10T08:12:54;11.40;71.60
73777;DHT22;62088;50.240;2.696;2023-04-10T08:15:21;11.40;71.40
73777;DHT22;62088;50.240;2.696;2023-04-10T08:17:48;11.50;71.20
73777;DHT22;62088;50.240;2.696;2023-04-10T08:20:16;11.50;71.40
73777;DHT22;62088;50.240;2.696;2023-04-10T08:22:43;11.60;71.40
73777;DHT22;62088;50.240;2.696;2023-04-10T08:25:10;11.70;71.50
73777;DHT22;62088;50.240;2.696;2023-04-10T08:27:37;11.80;71.70
73777;DHT22;62088;50.240;2.696;2023-04-10T08:30:04;11.90;70.80
73777;DHT22;62088;50.240;2.696;2023-04-10T08:32:31;12.00;70.60
73777;DHT22;62088;50.240;2.696;2023-04-10T08:34:58;12.00;70.70
73777;DHT22;62088;50.240;2.696;2023-04-10T08:37:25;12.10;70.80
73777;DHT22;62088;50.240;2.696;2023-04-10T08:39:53;12.20;70.70
73777;DHT22;62088;50.240;2.696;2023-04-10T08:42:20;12.20;70.20
73777;DHT22;62088;50.240;2.696;2023-04-10T08:44:48;12.30;69.70
73777;DHT22;62088;50.240;2.696;2023-04-10T08:47:19;12.30;69.50
73777;DHT22;62088;50.240;2.696;2023-04-10T08:49:53;12.40;69.60
73777;DHT22;62088;50.240;2.696;2023-04-10T08:52:24;12.40;69.60
73777;DHT22;62088;50.240;2.696;2023-04-10T08:54:55;12.50;70.00
73777;DHT22;62088;50.240;2.696;2023-04-10T08:57:24;12.60;69.90
73777;DHT22;62088;50.240;2.696;2023-04-10T08:59:52;12.70;70.10
73777;DHT22;62088;50.240;2.696;2023-04-10T09:02:20;12.70;70.30
73777;DHT22;62088;50.240;2.696;2023-04-10T09:04:51;12.90;69.90
73777;DHT22;62088;50.240;2.696;2023-04-10T09:07:22;12.90;69.90
73777;DHT22;62088;50.240;2.696;2023-04-10T09:09:49;13.10;68.90
73777;DHT22;62088;50.240;2.696;2023-04-10T09:12:16;13.20;69.00
73777;DHT22;62088;50.240;2.696;2023-04-10T09:14:43;13.30;68.70
73777;DHT22;62088;50.240;2.696;2023-04-10T09:17:18;13.40;68.70
73777;DHT22;62088;50.240;2.696;2023-04-10T09:19:47;13.40;68.70
73777;DHT22;62088;50.240;2.696;2023-04-10T09:22:15;13.50;68.50
73777;DHT22;62088;50.240;2.696;2023-04-10T09:24:44;13.50;68.40
73777;DHT22;62088;50.240;2.696;2023-04-10T09:27:35;13.50;68.30
73777;DHT22;62088;50.240;2.696;2023-04-10T09:30:05;13.50;68.60
73777;DHT22;62088;50.240;2.696;2023-04-10T09:32:40;13.60;69.10
73777;DHT22;62088;50.240;2.696;2023-04-10T09:35:10;13.70;68.70
73777;DHT22;62088;50.240;2.696;2023-04-10T09:37:38;13.70;68.80
73777;DHT22;62088;50.240;2.696;2023-04-10T09:40:21;13.70;69.60
73777;DHT22;62088;50.240;2.696;2023-04-10T09:42:51;13.70;70.20
73777;DHT22;62088;50.240;2.696;2023-04-10T09:45:18;13.70;70.20
73777;DHT22;62088;50.240;2.696;2023-04-10T09:48:03;13.70;70.40
73777;DHT22;62088;50.240;2.696;2023-04-10T09:50:35;13.70;70.20
73777;DHT22;62088;50.240;2.696;2023-04-10T09:53:11;13.70;70.20
73777;DHT22;62088;50.240;2.696;2023-04-10T09:55:39;13.70;70.00
73777;DHT22;62088;50.240;2.696;2023-04-10T09:58:07;13.70;69.60
73777;DHT22;62088;50.240;2.696;2023-04-10T10:00:45;13.70;69.70
73777;DHT22;62088;50.240;2.696;2023-04-10T10:03:16;13.60;69.90
73777;DHT22;62088;50.240;2.696;2023-04-10T10:05:49;13.60;70.30
73777;DHT22;62088;50.240;2.696;2023-04-10T10:08:17;13.60;71.00
73777;DHT22;62088;50.240;2.696;2023-04-10T10:10:50;13.60;71.20
73777;DHT22;62088;50.240;2.696;2023-04-10T10:16:14;13.70;70.70
73777;DHT22;62088;50.240;2.696;2023-04-10T10:19:08;13.70;70.50
73777;DHT22;62088;50.240;2.696;2023-04-10T10:21:39;13.70;70.40
73777;DHT22;62088;50.240;2.696;2023-04-10T10:24:08;13.70;69.60
73777;DHT22;62088;50.240;2.696;2023-04-10T10:26:38;13.70;69.40
73777;DHT22;62088;50.240;2.696;2023-04-10T10:29:08;13.70;69.50
73777;DHT22;62088;50.240;2.696;2023-04-10T10:31:37;13.70;69.60
73777;DHT22;62088;50.240;2.696;2023-04-10T10:34:04;13.60;70.40
73777;DHT22;62088;50.240;2.696;2023-04-10T10:36:34;13.60;70.60
73777;DHT22;62088;50.240;2.696;2023-04-10T10:41:53;13.60;71.00
73777;DHT22;62088;50.240;2.696;2023-04-10T10:44:32;13.50;71.50
73777;DHT22;62088;50.240;2.696;2023-04-10T10:49:58;13.60;72.10
73777;DHT22;62088;50.240;2.696;2023-04-10T10:57:50;13.50;72.50
73777;DHT22;62088;50.240;2.696;2023-04-10T11:00:22;13.50;72.60
73777;DHT22;62088;50.240;2.696;2023-04-10T11:08:37;13.60;72.30
73777;DHT22;62088;50.240;2.696;2023-04-10T11:11:11;13.70;72.30
73777;DHT22;62088;50.240;2.696;2023-04-10T11:16:41;13.80;71.40
73777;DHT22;62088;50.240;2.696;2023-04-10T11:19:11;13.90;70.20
73777;DHT22;62088;50.240;2.696;2023-04-10T11:22:06;13.90;70.60
73777;DHT22;62088;50.240;2.696;2023-04-10T11:24:54;13.90;70.40
73777;DHT22;62088;50.240;2.696;2023-04-10T11:27:43;13.90;70.00
73777;DHT22;62088;50.240;2.696;2023-04-10T11:30:27;13.90;70.10
73777;DHT22;62088;50.240;2.696;2023-04-10T11:32:55;14.00;70.60
73777;DHT22;62088;50.240;2.696;2023-04-10T11:35:23;13.90;71.50
73777;DHT22;62088;50.240;2.696;2023-04-10T11:37:51;13.90;71.20
73777;DHT22;62088;50.240;2.696;2023-04-10T11:40:18;13.90;71.10
73777;DHT22;62088;50.240;2.696;2023-04-10T11:42:46;13.90;71.40
73777;DHT22;62088;50.240;2.696;2023-04-10T11:45:24;13.90;71.40
73777;DHT22;62088;50.240;2.696;2023-04-10T11:47:52;13.90;71.60
73777;DHT22;62088;50.240;2.696;2023-04-10T11:50:20;13.90;71.40
73777;DHT22;62088;50.240;2.696;2023-04-10T11:52:50;13.90;71.70
73777;DHT22;62088;50.240;2.696;2023-04-10T11:55:37;14.00;71.60
73777;DHT22;62088;50.240;2.696;2023-04-10T11:58:22;14.00;71.70
73777;DHT22;62088;50.240;2.696;2023-04-10T12:01:03;14.00;71.60
73777;DHT22;62088;50.240;2.696;2023-04-10T12:03:32;14.10;71.90
73777;DHT22;62088;50.240;2.696;2023-04-10T12:05:59;14.10;71.50
73777;DHT22;62088;50.240;2.696;2023-04-10T12:08:34;14.10;70.90
73777;DHT22;62088;50.240;2.696;2023-04-10T12:11:02;14.20;71.00
73777;DHT22;62088;50.240;2.696;2023-04-10T12:13:30;14.20;70.90
73777;DHT22;62088;50.240;2.696;2023-04-10T12:16:03;14.30;70.90
73777;DHT22;62088;50.240;2.696;2023-04-10T12:18:30;14.40;70.90
73777;DHT22;62088;50.240;2.696;2023-04-10T12:20:58;14.40;70.20
73777;DHT22;62088;50.240;2.696;2023-04-10T12:23:26;14.40;70.20
73777;DHT22;62088;50.240;2.696;2023-04-10T12:26:09;14.40;69.40
73777;DHT22;62088;50.240;2.696;2023-04-10T12:28:38;14.50;69.10
73777;DHT22;62088;50.240;2.696;2023-04-10T12:31:05;14.50;69.90
73777;DHT22;62088;50.240;2.696;2023-04-10T12:33:32;14.60;70.20
73777;DHT22;62088;50.240;2.696;2023-04-10T12:36:00;14.70;70.30
73777;DHT22;62088;50.240;2.696;2023-04-10T12:38:39;14.70;70.30
73777;DHT22;62088;50.240;2.696;2023-04-10T12:41:11;14.80;70.40
73777;DHT22;62088;50.240;2.696;2023-04-10T12:43:40;14.80;70.90
73777;DHT22;62088;50.240;2.696;2023-04-10T12:46:08;14.90;70.90
73777;DHT22;62088;50.240;2.696;2023-04-10T12:48:36;14.80;70.60
73777;DHT22;62088;50.240;2.696;2023-04-10T12:51:03;14.80;70.50
73777;DHT22;62088;50.240;2.696;2023-04-10T12:53:30;14.80;70.70
73777;DHT22;62088;50.240;2.696;2023-04-10T12:56:03;14.80;70.30
73777;DHT22;62088;50.240;2.696;2023-04-10T12:58:32;14.70;70.30
73777;DHT22;62088;50.240;2.696;2023-04-10T13:01:05;14.70;70.70
73777;DHT22;62088;50.240;2.696;2023-04-10T13:03:33;14.70;71.10
73777;DHT22;62088;50.240;2.696;2023-04-10T13:06:04;14.60;71.60
73777;DHT22;62088;50.240;2.696;2023-04-10T13:08:33;14.60;72.30
73777;DHT22;62088;50.240;2.696;2023-04-10T13:11:00;14.50;73.00
73777;DHT22;62088;50.240;2.696;2023-04-10T13:13:29;14.40;73.30
73777;DHT22;62088;50.240;2.696;2023-04-10T13:15:59;14.40;73.70
73777;DHT22;62088;50.240;2.696;2023-04-10T13:18:26;14.30;74.40
73777;DHT22;62088;50.240;2.696;2023-04-10T13:20:53;14.10;75.00
73777;DHT22;62088;50.240;2.696;2023-04-10T13:23:20;14.00;75.60
73777;DHT22;62088;50.240;2.696;2023-04-10T13:25:47;13.90;76.30
73777;DHT22;62088;50.240;2.696;2023-04-10T13:28:14;13.90;76.90
73777;DHT22;62088;50.240;2.696;2023-04-10T13:30:42;13.80;77.30
73777;DHT22;62088;50.240;2.696;2023-04-10T13:33:09;13.70;77.70
73777;DHT22;62088;50.240;2.696;2023-04-10T13:35:37;13.70;78.10
73777;DHT22;62088;50.240;2.696;2023-04-10T13:38:06;13.60;78.40
73777;DHT22;62088;50.240;2.696;2023-04-10T13:40:35;13.60;78.70
73777;DHT22;62088;50.240;2.696;2023-04-10T13:43:02;13.50;79.00
73777;DHT22;62088;50.240;2.696;2023-04-10T13:45:29;13.50;79.40
73777;DHT22;62088;50.240;2.696;2023-04-10T13:47:56;13.50;79.80
73777;DHT22;62088;50.240;2.696;2023-04-10T13:50:23;13.50;80.10
73777;DHT22;62088;50.240;2.696;2023-04-10T13:52:50;13.50;80.30
73777;DHT22;62088;50.240;2.696;2023-04-10T13:55:19;13.50;80.80
73777;DHT22;62088;50.240;2.696;2023-04-10T13:57:46;13.50;81.20
73777;DHT22;62088;50.240;2.696;2023-04-10T14:00:13;13.50;81.20
73777;DHT22;62088;50.240;2.696;2023-04-10T14:02:41;13.50;81.10
73777;DHT22;62088;50.240;2.696;2023-04-10T14:05:08;13.50;81.20
73777;DHT22;62088;50.240;2.696;2023-04-10T14:07:35;13.60;81.20
73777;DHT22;62088;50.240;2.696;2023-04-10T14:10:03;13.50;81.20
73777;DHT22;62088;50.240;2.696;2023-04-10T14:12:30;13.50;81.10
73777;DHT22;62088;50.240;2.696;2023-04-10T14:14:58;13.50;81.00
73777;DHT22;62088;50.240;2.696;2023-04-10T14:17:25;13.50;81.00
73777;DHT22;62088;50.240;2.696;2023-04-10T14:19:52;13.50;80.90
73777;DHT22;62088;50.240;2.696;2023-04-10T14:22:19;13.50;80.90
73777;DHT22;62088;50.240;2.696;2023-04-10T14:24:46;13.50;80.90
73777;DHT22;62088;50.240;2.696;2023-04-10T14:27:14;13.50;80.70
73777;DHT22;62088;50.240;2.696;2023-04-10T14:29:42;13.40;80.10
73777;DHT22;62088;50.240;2.696;2023-04-10T14:32:20;13.30;79.80
73777;DHT22;62088;50.240;2.696;2023-04-10T14:34:47;13.20;79.70
73777;DHT22;62088;50.240;2.696;2023-04-10T14:37:14;13.10;79.80
73777;DHT22;62088;50.240;2.696;2023-04-10T14:39:41;12.90;79.80
73777;DHT22;62088;50.240;2.696;2023-04-10T14:42:08;12.90;79.80
73777;DHT22;62088;50.240;2.696;2023-04-10T14:44:36;12.90;80.00
73777;DHT22;62088;50.240;2.696;2023-04-10T14:47:03;12.80;80.10
73777;DHT22;62088;50.240;2.696;2023-04-10T14:49:32;12.70;80.20
73777;DHT22;62088;50.240;2.696;2023-04-10T14:51:59;12.70;80.20
73777;DHT22;62088;50.240;2.696;2023-04-10T14:54:26;12.60;80.30
73777;DHT22;62088;50.240;2.696;2023-04-10T14:56:53;12.60;80.50
73777;DHT22;62088;50.240;2.696;2023-04-10T14:59:20;12.60;80.50
73777;DHT22;62088;50.240;2.696;2023-04-10T15:01:47;12.60;80.60
73777;DHT22;62088;50.240;2.696;2023-04-10T15:04:14;12.50;80.60
73777;DHT22;62088;50.240;2.696;2023-04-10T15:06:41;12.50;80.70
73777;DHT22;62088;50.240;2.696;2023-04-10T15:09:08;12.50;80.70
73777;DHT22;62088;50.240;2.696;2023-04-10T15:11:35;12.50;80.70
73777;DHT22;62088;50.240;2.696;2023-04-10T15:14:02;12.50;80.80
73777;DHT22;62088;50.240;2.696;2023-04-10T15:16:30;12.50;80.90
73777;DHT22;62088;50.240;2.696;2023-04-10T15:18:57;12.40;80.90
73777;DHT22;62088;50.240;2.696;2023-04-10T15:21:24;12.40;81.00
73777;DHT22;62088;50.240;2.696;2023-04-10T15:23:50;12.40;81.00
73777;DHT22;62088;50.240;2.696;2023-04-10T15:26:18;12.40;81.10
73777;DHT22;62088;50.240;2.696;2023-04-10T15:28:46;12.40;81.10
73777;DHT22;62088;50.240;2.696;2023-04-10T15:31:14;12.40;81.20
73777;DHT22;62088;50.240;2.696;2023-04-10T15:33:41;12.50;81.30
73777;DHT22;62088;50.240;2.696;2023-04-10T15:36:08;12.50;81.30
73777;DHT22;62088;50.240;2.696;2023-04-10T15:38:35;12.40;81.40
73777;DHT22;62088;50.240;2.696;2023-04-10T15:41:08;12.40;81.50
73777;DHT22;62088;50.240;2.696;2023-04-10T15:43:36;12.40;81.50
73777;DHT22;62088;50.240;2.696;2023-04-10T15:46:04;12.50;81.50
73777;DHT22;62088;50.240;2.696;2023-04-10T15:48:31;12.50;81.60
73777;DHT22;62088;50.240;2.696;2023-04-10T15:51:01;12.50;81.70
73777;DHT22;62088;50.240;2.696;2023-04-10T15:53:28;12.50;81.70
73777;DHT22;62088;50.240;2.696;2023-04-10T15:55:56;12.50;81.70
73777;DHT22;62088;50.240;2.696;2023-04-10T15:58:23;12.50;81.60
73777;DHT22;62088;50.240;2.696;2023-04-10T16:00:50;12.50;81.60
73777;DHT22;62088;50.240;2.696;2023-04-10T16:03:17;12.50;81.60
73777;DHT22;62088;50.240;2.696;2023-04-10T16:05:44;12.50;81.70
73777;DHT22;62088;50.240;2.696;2023-04-10T16:08:11;12.50;81.70
73777;DHT22;62088;50.240;2.696;2023-04-10T16:10:38;12.50;81.70
73777;DHT22;62088;50.240;2.696;2023-04-10T16:13:05;12.50;81.70
73777;DHT22;62088;50.240;2.696;2023-04-10T16:15:33;12.50;81.70
73777;DHT22;62088;50.240;2.696;2023-04-10T16:18:03;12.50;81.60
73777;DHT22;62088;50.240;2.696;2023-04-10T16:20:30;12.50;81.60
73777;DHT22;62088;50.240;2.696;2023-04-10T16:22:58;12.50;81.50
73777;DHT22;62088;50.240;2.696;2023-04-10T16:25:26;12.50;81.50
73777;DHT22;62088;50.240;2.696;2023-04-10T16:27:53;12.40;81.50
73777;DHT22;62088;50.240;2.696;2023-04-10T16:30:22;12.40;81.50
73777;DHT22;62088;50.240;2.696;2023-04-10T16:32:49;12.40;81.60
73777;DHT22;62088;50.240;2.696;2023-04-10T16:35:16;12.40;81.60
73777;DHT22;62088;50.240;2.696;2023-04-10T16:37:45;12.40;81.60
73777;DHT22;62088;50.240;2.696;2023-04-10T16:40:12;12.40;81.60